Terminal Aerodrome Forecast
Issued by NWS Grand Forks, ND

Home | Current Version | Previous Version | Graphics & Text | Print | Product List | Glossary On
Versions: 1 2 3 4 5 6 7 8 9 10 11 12 13 14 15 16 17 18 19 20 21 22
000
FTUS43 KFGF 241300 AAA
TAFGFK
TAF AMD
KGFK 241327Z 2413/2512 18006KT P6SM SCT004 OVC030
      TEMPO 2414/2416 BKN004
     FM241600 15013KT P6SM BKN030
     FM242200 20017KT P6SM BKN100
     FM250200 20012KT P6SM SCT250=

USA.gov is the U.S. government's official web portal to all federal, state and local government web resources and services.